Tuesday, July 22, 2014, 7:51 PM EDT

KNHK, Nas Patuxent River Md

Location: Patuxent River, MD, United States Lat: 38.3
Local Time: 7:51 PM EDT (23:51 GMT) Lon: -76.4
Time Zone: US/Eastern Elev: 39 ft

Show me the last for .
Show Decoded

2014-07-22 18:52 METAR KNHK 222252Z 14008KT 10SM FEW040 BKN250 27/18 A3010 RMK AO2 SLP193
                 T02670183 =
2014-07-22 17:52 METAR KNHK 222152Z 14009KT 10SM FEW040 SCT200 BKN250 27/18 A3011 RMK AO2 SLP197
                 T02720183 =
2014-07-22 16:52 METAR KNHK 222052Z 14009KT 10SM FEW040 SCT090 BKN250 27/18 A3012 RMK AO2 SLP200
                 T02720178 56013 =
2014-07-22 15:52 METAR KNHK 221952Z 15009KT 10SM FEW030 FEW060 BKN250 28/18 A3013 RMK AO2 SLP203
                 T02780183 =
2014-07-22 13:52 METAR KNHK 221752Z 13007KT 10SM FEW025 FEW050 BKN250 28/19 A3016 RMK AO2 SLP213
                 T02780194 10278 20233 58009 =
2014-07-22 12:52 METAR KNHK 221652Z 12008KT 100V160 10SM FEW020 FEW045 BKN250 27/19 A3017 RMK AO2
                 SLP217 T02720189 =
2014-07-22 11:52 METAR KNHK 221552Z 14008KT 10SM FEW018 BKN046 BKN250 26/20 A3018 RMK AO2 SLP220
                 T02610200 =
2014-07-22 10:52 METAR KNHK 221452Z 11007KT 10SM FEW015 FEW045 BKN250 26/21 A3019 RMK AO2 SLP222
                 T02560211 58002 VISNO RY24 $ =
2014-07-22 09:52 METAR KNHK 221352Z 12005KT 10SM FEW015 FEW045 BKN250 26/21 A3019 RMK AO2 SLP222
                 T02560211 $ =
2014-07-22 08:52 METAR KNHK 221252Z 00000KT 10SM FEW013 OVC046 25/21 A3020 RMK AO2 SLP226
                 T02500206 $ =
2014-07-22 07:52 METAR KNHK 221152Z 00000KT 10SM FEW012 BKN048 BKN250 23/21 A3019 RMK AO2 SLP225
                 T02330211 10233 20189 53012 =
2014-07-22 05:52 METAR KNHK 220952Z 00000KT 10SM FEW012 FEW060 FEW250 19/19 A3016 RMK AO2 SLP213
                 T01940189 $ =
2014-07-22 05:07 METAR KNHK 220907Z 00000KT 10SM BKN060 BKN250 19/18 A3016 RMK AO2 T01940183 $ =
2014-07-22 04:52 METAR KNHK 220852Z AUTO 00000KT 10SM BKN060 19/18 A3016 RMK AO2 SLP212 T01940183
                 55004 $ =
2014-07-22 03:52 METAR KNHK 220752Z AUTO 21003KT 10SM CLR 19/19 A3016 RMK AO2 SLP212 T01940189 $
                 =
2014-07-22 02:52 METAR KNHK 220652Z AUTO 21003KT 10SM CLR 20/19 A3016 RMK AO2 SLP214 T02000189 $
                 =
2014-07-22 01:52 METAR KNHK 220552Z AUTO 00000KT 10SM CLR 21/19 A3017 RMK AO2 SLP217 T02110194
                 10244 20211 58003 $ =
2014-07-22 00:52 METAR KNHK 220452Z AUTO 20003KT 10SM CLR 22/20 A3018 RMK AO2 SLP219 T02220200
                 402670217 $ =
2014-07-22 00:33 METAR KNHK 220433Z AUTO 18003KT 10SM SCT017 22/20 A3018 RMK AO2 T02220200 $ =
2014-07-22 00:11 METAR KNHK 220411Z AUTO 17004KT 10SM BKN017 OVC075 23/20 A3018 RMK AO2 T02280200
                 $ =
2014-07-21 23:52 METAR KNHK 220352Z AUTO 17006KT 10SM FEW019 OVC075 23/20 A3018 RMK AO2 CIG 015
                 RY24 SLP220 T02280200 $ =
2014-07-21 21:52 METAR KNHK 220152Z 17006KT 10SM SCT019 BKN250 23/20 A3017 RMK AO2 SLP215
                 T02330200 $ =
2014-07-21 20:52 METAR KNHK 220052Z 00000KT 10SM FEW020 FEW100 BKN250 24/20 A3016 RMK AO2 SLP213
                 T02390200 $ =
2014-07-21 19:52 METAR KNHK 212352Z 18004KT 10SM FEW025 SCT090 SCT200 BKN250 24/20 A3016 RMK AO2
                 SLP213 T02440200 10267 20244 56001 $ =

Support USWX by starting your Amazon purchase here.